Hughesville, Missouri
Current Conditions -  °F | °C
As of 9:53 AM on Thursday 27 Nov 2014 (Local Time) from KDMO Reporting Station
Overcast Overcast  
Wind Chill: 22°   Ceiling: 1500
Heat Index: 29°   Visibility: 10mi
Dew Point: 22°   Wind: 7mph
Humidity: 75%   Direction: 310°NW
Pressure: 30.54"   Gusts: NA
Location:  38.84°N, 93.3°W
Report Text: KDMO 271553Z AUTO 31006KT 10SM OVC015 M02/M06 A3054 RMK AO2 SLP351 T10171056
Loading
Personal Weather Stations






























Interactive Weather Map New forecast layout! Learn more

10-Day Weather Forecast

Advertisements
Track Severe Weather on mobile